Terminal Aerodrome Forecast
Issued by NWS

Current Version | Previous Version | Text Only | Print | Product List | Glossary On
Versions: 1 2 3 4 5 6 7 8 9 10 11 12 13 14 15 16 17 18 19 20 21 22 23 24 25 26 27
000
FTUS42 KFFC 281935 AAC
TAFFTY
TAF AMD
KFTY 281935Z 2820/2918 03005KT P6SM VCSH SCT040 BKN060
      TEMPO 2820/2821 5SM -TSRA BR BKN035CB
     FM282100 05007KT P6SM SCT050 BKN070
     FM290200 06004KT P6SM SCT080 BKN120
     FM290600 35003KT P6SM SCT150
     FM291500 32006KT P6SM SCT250=

USA.gov is the U.S. government's official web portal to all federal, state and local government web resources and services.